createdAt,value
2023-01-18T00:01:06.959Z,5.67
2023-01-18T00:03:35.076Z,6.40
2023-01-18T00:06:07.261Z,5.47
2023-01-18T00:08:35.801Z,5.63
2023-01-18T00:11:04.029Z,6.00
2023-01-18T00:13:30.819Z,6.93
2023-01-18T00:16:05.903Z,6.10
2023-01-18T00:18:33.024Z,6.50
2023-01-18T00:21:07.890Z,6.03
2023-01-18T00:23:35.298Z,5.37
2023-01-18T00:26:02.848Z,6.03
2023-01-18T00:28:29.636Z,6.07
2023-01-18T00:30:56.635Z,5.87
2023-01-18T00:33:23.401Z,5.60
2023-01-18T00:36:01.396Z,6.37
2023-01-18T00:38:29.326Z,5.27
2023-01-18T00:40:56.882Z,5.63
2023-01-18T00:43:41.717Z,6.07
2023-01-18T00:46:09.410Z,6.40
2023-01-18T00:48:37.003Z,5.63
2023-01-18T00:51:03.793Z,5.80
2023-01-18T00:53:30.942Z,6.23
2023-01-18T00:55:57.611Z,5.83
2023-01-18T00:58:24.431Z,5.43
2023-01-18T01:00:52.684Z,5.20
2023-01-18T01:03:20.955Z,6.37
2023-01-18T01:06:06.602Z,5.90
2023-01-18T01:08:33.542Z,6.30
2023-01-18T01:11:09.999Z,6.50
2023-01-18T01:13:56.174Z,6.27
2023-01-18T01:16:41.577Z,6.10
2023-01-18T01:19:27.037Z,5.80
2023-01-18T01:22:12.640Z,6.23
2023-01-18T01:24:58.066Z,6.80
2023-01-18T01:27:24.716Z,8.07
2023-01-18T01:29:52.568Z,7.03
2023-01-18T01:32:19.276Z,7.30
2023-01-18T01:34:46.040Z,7.67
2023-01-18T01:37:12.704Z,7.77
2023-01-18T01:39:39.358Z,7.60
2023-01-18T01:42:06.011Z,7.60
2023-01-18T01:44:34.383Z,8.43
2023-01-18T01:47:26.968Z,6.70
2023-01-18T01:49:59.040Z,7.80
2023-01-18T01:52:32.719Z,8.07
2023-01-18T01:55:24.924Z,7.07
2023-01-18T01:58:09.206Z,8.17
2023-01-18T02:00:35.888Z,7.47
2023-01-18T02:03:06.181Z,8.03
2023-01-18T02:05:36.322Z,7.70
2023-01-18T02:08:03.655Z,7.10
2023-01-18T02:10:30.947Z,8.00
2023-01-18T02:13:00.307Z,8.43
2023-01-18T02:15:56.460Z,7.27
2023-01-18T02:18:37.019Z,7.57
2023-01-18T02:21:26.537Z,7.33
2023-01-18T02:24:18.127Z,6.70
2023-01-18T02:27:26.342Z,6.07
2023-01-18T02:30:09.777Z,6.30
2023-01-18T02:32:46.369Z,5.53
2023-01-18T02:35:37.558Z,6.20
2023-01-18T02:38:15.527Z,5.93
2023-01-18T02:40:57.432Z,6.60
2023-01-18T02:43:44.040Z,6.37
2023-01-18T02:46:33.171Z,5.90
2023-01-18T02:49:15.631Z,7.07
2023-01-18T02:51:42.249Z,6.27
2023-01-18T02:54:11.952Z,6.77
2023-01-18T02:56:47.048Z,6.50
2023-01-18T02:59:16.493Z,6.63
2023-01-18T03:01:57.058Z,6.83
2023-01-18T03:04:54.301Z,5.90
2023-01-18T03:07:40.495Z,6.33
2023-01-18T03:10:09.798Z,6.23
2023-01-18T03:12:46.520Z,6.50
2023-01-18T03:15:23.167Z,5.87
2023-01-18T03:17:55.194Z,7.43
2023-01-18T03:20:25.871Z,7.03
2023-01-18T03:23:19.612Z,6.90
2023-01-18T03:25:50.245Z,6.60
2023-01-18T03:28:49.611Z,7.33
2023-01-18T03:31:46.675Z,7.40
2023-01-18T03:34:23.014Z,8.43
2023-01-18T03:36:52.541Z,7.87
2023-01-18T03:39:30.759Z,7.73
2023-01-18T03:42:13.452Z,8.40
2023-01-18T03:44:55.886Z,8.40
2023-01-18T03:47:22.700Z,7.77
2023-01-18T03:49:49.561Z,7.93
2023-01-18T03:52:25.112Z,22.10
2023-01-18T03:55:00.299Z,7.60
2023-01-18T03:57:36.859Z,7.67
2023-01-18T04:00:06.036Z,8.43
2023-01-18T04:02:32.806Z,7.73
2023-01-18T04:05:03.570Z,7.90
2023-01-18T04:07:34.625Z,8.27
2023-01-18T04:10:01.692Z,7.23
2023-01-18T04:12:28.828Z,8.17
2023-01-18T04:14:55.550Z,8.20
2023-01-18T04:17:22.304Z,7.53
2023-01-18T04:19:50.530Z,7.13
2023-01-18T04:22:20.686Z,6.97
2023-01-18T04:24:47.372Z,20.73
2023-01-18T04:27:18.876Z,9.73
2023-01-18T04:29:45.668Z,7.83
2023-01-18T04:32:12.332Z,8.33
2023-01-18T04:34:39.052Z,7.10
2023-01-18T04:37:05.710Z,8.13
2023-01-18T04:39:32.399Z,7.70
2023-01-18T04:41:59.139Z,8.20
2023-01-18T04:44:25.870Z,8.57
2023-01-18T04:46:52.736Z,8.40
2023-01-18T04:49:19.462Z,8.80
2023-01-18T04:51:47.576Z,8.33
2023-01-18T04:54:16.878Z,8.20
2023-01-18T04:56:43.577Z,8.43
2023-01-18T04:59:15.520Z,9.17
2023-01-18T05:01:42.328Z,8.97
2023-01-18T05:04:09.069Z,8.50
2023-01-18T05:06:35.731Z,8.67
2023-01-18T05:09:02.389Z,7.97
2023-01-18T05:11:29.026Z,8.57
2023-01-18T05:13:55.727Z,8.93
2023-01-18T05:16:23.880Z,9.10
2023-01-18T05:18:50.995Z,8.17
2023-01-18T05:21:17.696Z,8.77
2023-01-18T05:23:44.436Z,7.93
2023-01-18T05:26:20.896Z,8.27
2023-01-18T05:28:48.649Z,7.70
2023-01-18T05:31:16.377Z,8.40
2023-01-18T05:33:43.167Z,8.63
2023-01-18T05:36:10.745Z,9.63
2023-01-18T05:38:37.415Z,8.90
2023-01-18T05:41:07.954Z,9.27
2023-01-18T05:43:35.801Z,9.30
2023-01-18T05:46:02.683Z,11.87
2023-01-18T05:48:30.068Z,8.13
2023-01-18T05:50:56.752Z,7.17
2023-01-18T05:53:23.659Z,6.87
2023-01-18T05:55:58.388Z,6.50
2023-01-18T05:58:26.406Z,6.47
2023-01-18T06:00:53.439Z,6.77
2023-01-18T06:03:20.681Z,5.63
2023-01-18T06:05:48.567Z,5.43
2023-01-18T06:08:15.961Z,5.37
2023-01-18T06:10:42.713Z,5.90
2023-01-18T06:13:10.672Z,5.10
2023-01-18T06:15:37.412Z,6.13
2023-01-18T06:18:04.213Z,6.43
2023-01-18T06:20:31.434Z,6.23
2023-01-18T06:22:58.760Z,5.37
2023-01-18T06:25:26.009Z,5.40
2023-01-18T06:27:52.875Z,5.60
2023-01-18T06:30:20.337Z,5.73
2023-01-18T06:32:49.210Z,5.77
2023-01-18T06:35:16.076Z,5.23
2023-01-18T06:37:44.432Z,5.17
2023-01-18T06:40:11.684Z,5.47
2023-01-18T06:42:38.888Z,4.80
2023-01-18T06:45:06.130Z,5.53
2023-01-18T06:47:32.799Z,5.40
2023-01-18T06:49:59.477Z,5.70
2023-01-18T06:52:26.260Z,6.03
2023-01-18T06:54:52.951Z,5.93
2023-01-18T06:57:19.626Z,6.50
2023-01-18T06:59:46.296Z,6.73
2023-01-18T07:02:16.501Z,7.03
2023-01-18T07:04:45.318Z,7.03
2023-01-18T07:07:13.269Z,7.83
2023-01-18T07:09:40.048Z,7.57
2023-01-18T07:12:06.848Z,7.53
2023-01-18T07:14:33.887Z,7.60
2023-01-18T07:17:00.872Z,6.07
2023-01-18T07:19:27.624Z,6.60
2023-01-18T07:21:54.262Z,6.77
2023-01-18T07:24:21.275Z,6.87
2023-01-18T07:26:48.224Z,5.43
2023-01-18T07:29:15.015Z,5.53
2023-01-18T07:31:41.800Z,5.50
2023-01-18T07:34:09.894Z,5.60
2023-01-18T07:36:39.148Z,6.00
2023-01-18T07:39:06.581Z,6.13
2023-01-18T07:41:34.002Z,6.07
2023-01-18T07:44:01.168Z,7.70
2023-01-18T07:46:28.118Z,7.47
2023-01-18T07:48:55.068Z,6.20
2023-01-18T07:51:22.508Z,7.40
2023-01-18T07:53:52.636Z,7.03
2023-01-18T07:56:19.380Z,7.60
2023-01-18T07:58:46.261Z,9.10
2023-01-18T08:01:15.600Z,8.47
2023-01-18T08:03:44.174Z,7.80
2023-01-18T08:06:13.403Z,7.70
2023-01-18T08:08:40.479Z,7.67
2023-01-18T08:11:07.621Z,7.33
2023-01-18T08:13:34.496Z,7.40
2023-01-18T08:16:03.918Z,7.73
2023-01-18T08:18:31.024Z,7.40
2023-01-18T08:20:58.303Z,8.33
2023-01-18T08:23:25.114Z,7.23
2023-01-18T08:25:52.002Z,7.77
2023-01-18T08:28:19.452Z,8.53
2023-01-18T08:30:47.846Z,9.43
2023-01-18T08:33:15.176Z,12.73
2023-01-18T08:35:44.440Z,11.53
2023-01-18T08:38:12.084Z,12.20
2023-01-18T08:40:39.139Z,10.37
2023-01-18T08:43:06.645Z,10.03
2023-01-18T08:45:34.979Z,9.57
2023-01-18T08:48:10.753Z,8.77
2023-01-18T08:50:39.042Z,8.40
2023-01-18T08:53:05.784Z,8.53
2023-01-18T08:55:34.049Z,8.23
2023-01-18T08:58:00.784Z,8.30
2023-01-18T09:00:31.332Z,8.27
2023-01-18T09:02:59.293Z,9.07
2023-01-18T09:05:27.080Z,9.27
2023-01-18T09:07:54.992Z,8.63
2023-01-18T09:10:22.752Z,11.10
2023-01-18T09:12:50.035Z,12.20
2023-01-18T09:15:18.359Z,22.03
2023-01-18T09:17:45.359Z,17.00
2023-01-18T09:20:12.500Z,12.90
2023-01-18T09:22:39.701Z,10.27
2023-01-18T09:25:06.788Z,8.17
2023-01-18T09:27:33.528Z,8.93
2023-01-18T09:30:00.663Z,8.43
2023-01-18T09:32:27.499Z,10.43
2023-01-18T09:34:54.896Z,10.07
2023-01-18T09:37:22.116Z,9.80
2023-01-18T09:39:52.737Z,8.43
2023-01-18T09:42:27.004Z,8.00
2023-01-18T09:45:00.351Z,8.73
2023-01-18T09:47:30.878Z,9.03
2023-01-18T09:49:59.747Z,8.33
2023-01-18T09:52:42.517Z,8.47
2023-01-18T09:55:16.756Z,8.00
2023-01-18T09:58:24.868Z,8.73
2023-01-18T10:01:06.487Z,8.07
2023-01-18T10:03:43.522Z,8.80
2023-01-18T10:06:17.761Z,8.40
2023-01-18T10:08:49.999Z,8.60
2023-01-18T10:11:30.034Z,8.67
2023-01-18T10:13:59.638Z,9.33
2023-01-18T10:16:26.463Z,8.60
2023-01-18T10:18:57.171Z,8.73
2023-01-18T10:21:33.783Z,9.00
2023-01-18T10:24:39.781Z,10.17
2023-01-18T10:27:27.281Z,9.87
2023-01-18T10:30:14.144Z,8.97
2023-01-18T10:32:47.701Z,8.93
2023-01-18T10:35:23.748Z,10.63
2023-01-18T10:37:51.895Z,9.40
2023-01-18T10:40:18.735Z,8.60
2023-01-18T10:42:47.831Z,8.40
2023-01-18T10:45:25.605Z,6.57
2023-01-18T10:47:54.441Z,7.67
2023-01-18T10:50:32.848Z,6.87
2023-01-18T10:53:20.860Z,7.27
2023-01-18T10:56:04.386Z,7.40
2023-01-18T10:58:45.400Z,6.53
2023-01-18T11:01:33.477Z,6.73
2023-01-18T11:04:16.701Z,12.10
2023-01-18T11:07:03.893Z,7.60
2023-01-18T11:09:45.792Z,6.27
2023-01-18T11:12:36.295Z,6.43
2023-01-18T11:15:15.064Z,5.67
2023-01-18T11:17:46.232Z,5.77
2023-01-18T11:20:23.228Z,5.10
2023-01-18T11:22:59.522Z,5.23
2023-01-18T11:25:47.434Z,7.80
2023-01-18T11:28:39.568Z,7.97
2023-01-18T11:31:15.267Z,6.87
2023-01-18T11:33:57.494Z,6.57
2023-01-18T11:36:54.320Z,6.17
2023-01-18T11:39:28.268Z,6.00
2023-01-18T11:42:31.536Z,6.00
2023-01-18T11:45:04.361Z,9.00
2023-01-18T11:48:03.798Z,10.00
2023-01-18T11:50:33.862Z,9.23
2023-01-18T11:53:23.478Z,15.17
2023-01-18T11:56:04.870Z,7.50
2023-01-18T11:58:33.707Z,5.60
2023-01-18T12:01:21.629Z,5.70
2023-01-18T12:04:03.547Z,4.57
2023-01-18T12:06:38.806Z,5.53
2023-01-18T12:09:36.937Z,5.30
2023-01-18T12:12:44.917Z,4.80
2023-01-18T12:15:42.368Z,6.47
2023-01-18T12:18:38.213Z,17.27
2023-01-18T12:21:13.696Z,13.43
2023-01-18T12:24:04.009Z,11.17
2023-01-18T12:27:09.836Z,7.83
2023-01-18T12:30:06.475Z,4.30
2023-01-18T12:32:41.953Z,4.50
2023-01-18T12:35:35.385Z,4.30
2023-01-18T12:38:28.857Z,3.63
2023-01-18T12:41:23.710Z,4.63
2023-01-18T12:44:11.555Z,4.73
2023-01-18T12:46:48.165Z,4.40
2023-01-18T12:49:18.821Z,4.40
2023-01-18T12:51:48.851Z,4.40
2023-01-18T12:54:27.407Z,4.80
2023-01-18T12:56:57.241Z,4.70
2023-01-18T12:59:35.928Z,5.23
2023-01-18T13:02:25.885Z,5.20
2023-01-18T13:05:14.447Z,4.60
2023-01-18T13:07:59.084Z,4.50
2023-01-18T13:10:28.696Z,4.93
2023-01-18T13:12:57.128Z,5.20
2023-01-18T13:15:31.221Z,5.07
2023-01-18T13:18:08.077Z,5.93
2023-01-18T13:20:55.467Z,5.47
2023-01-18T13:23:47.181Z,4.37
2023-01-18T13:26:27.258Z,4.50
2023-01-18T13:29:29.699Z,4.30
2023-01-18T13:31:57.146Z,4.93
2023-01-18T13:34:30.691Z,4.77
2023-01-18T13:37:13.452Z,5.00
2023-01-18T13:39:48.151Z,5.67
2023-01-18T13:42:14.883Z,5.13
2023-01-18T13:44:45.856Z,5.33
2023-01-18T13:47:45.769Z,5.40
2023-01-18T13:50:39.765Z,6.10
2023-01-18T13:53:15.685Z,6.23
2023-01-18T13:55:54.481Z,5.67
2023-01-18T13:58:29.703Z,5.53
2023-01-18T14:00:59.968Z,5.63
2023-01-18T14:03:30.661Z,8.63
2023-01-18T14:05:58.537Z,6.27
2023-01-18T14:08:32.588Z,3.77
2023-01-18T14:11:04.481Z,3.90
2023-01-18T14:13:46.467Z,4.80
2023-01-18T14:16:22.713Z,3.87
2023-01-18T14:19:10.999Z,4.93
2023-01-18T14:21:54.690Z,3.00
2023-01-18T14:25:01.724Z,3.40
2023-01-18T14:27:35.321Z,3.50
2023-01-18T14:30:07.112Z,3.50
2023-01-18T14:32:40.017Z,3.87
2023-01-18T14:35:20.506Z,3.83
2023-01-18T14:37:47.451Z,5.53
2023-01-18T14:40:27.037Z,4.13
2023-01-18T14:42:56.942Z,4.17
2023-01-18T14:45:37.236Z,4.57
2023-01-18T14:48:17.239Z,3.97
2023-01-18T14:50:47.015Z,4.87
2023-01-18T14:53:20.485Z,5.80
2023-01-18T14:56:26.193Z,4.23
2023-01-18T14:58:58.469Z,4.40
2023-01-18T15:01:37.110Z,4.87
2023-01-18T15:04:19.583Z,4.80
2023-01-18T15:06:54.090Z,4.60
2023-01-18T15:09:22.643Z,5.30
2023-01-18T15:11:52.211Z,4.23
2023-01-18T15:14:23.324Z,4.17
2023-01-18T15:16:53.379Z,4.50
2023-01-18T15:19:54.469Z,4.40
2023-01-18T15:22:27.618Z,4.50
2023-01-18T15:24:57.804Z,4.90
2023-01-18T15:27:24.752Z,4.53
2023-01-18T15:29:54.491Z,4.87
2023-01-18T15:32:25.047Z,4.70
2023-01-18T15:34:53.475Z,6.17
2023-01-18T15:37:36.434Z,6.60
2023-01-18T15:40:14.618Z,7.00
2023-01-18T15:42:53.605Z,6.67
2023-01-18T15:45:25.722Z,7.10
2023-01-18T15:47:55.043Z,6.90
2023-01-18T15:50:25.591Z,5.73
2023-01-18T15:53:06.350Z,6.33
2023-01-18T15:55:45.664Z,5.30
2023-01-18T15:58:40.162Z,5.00
2023-01-18T16:01:15.830Z,5.70
2023-01-18T16:03:45.988Z,5.73
2023-01-18T16:06:20.281Z,5.53
2023-01-18T16:09:10.352Z,5.53
2023-01-18T16:11:41.124Z,5.73
2023-01-18T16:14:25.494Z,6.67
2023-01-18T16:16:53.922Z,5.37
2023-01-18T16:19:41.105Z,6.30
2023-01-18T16:22:19.555Z,6.47
2023-01-18T16:25:02.082Z,6.63
2023-01-18T16:27:32.315Z,6.30
2023-01-18T16:30:01.713Z,6.83
2023-01-18T16:32:32.394Z,7.33
2023-01-18T16:35:10.015Z,6.23
2023-01-18T16:37:38.387Z,6.00
2023-01-18T16:40:09.302Z,6.77
2023-01-18T16:42:58.426Z,6.77
2023-01-18T16:45:25.770Z,6.63
2023-01-18T16:47:52.449Z,6.97
2023-01-18T16:50:19.539Z,7.77
2023-01-18T16:52:46.300Z,8.50
2023-01-18T16:55:17.275Z,8.20
2023-01-18T16:57:45.056Z,8.37
2023-01-18T17:00:19.674Z,7.90
2023-01-18T17:02:46.417Z,7.50
2023-01-18T17:05:14.129Z,7.83
2023-01-18T17:07:41.039Z,8.80
2023-01-18T17:10:38.846Z,7.97
2023-01-18T17:13:05.906Z,7.13
2023-01-18T17:15:34.621Z,7.33
2023-01-18T17:18:02.276Z,7.73
2023-01-18T17:20:30.641Z,8.03
2023-01-18T17:22:57.777Z,8.07
2023-01-18T17:25:25.128Z,7.63
2023-01-18T17:27:51.963Z,9.03
2023-01-18T17:30:21.412Z,8.20
2023-01-18T17:32:48.838Z,8.80
2023-01-18T17:35:17.428Z,9.20
2023-01-18T17:37:44.333Z,8.40
2023-01-18T17:40:19.688Z,8.57
2023-01-18T17:42:51.743Z,8.43
2023-01-18T17:45:18.907Z,9.27
2023-01-18T17:47:45.604Z,9.27
2023-01-18T17:50:17.436Z,9.03
2023-01-18T17:52:44.172Z,8.83
2023-01-18T17:55:13.613Z,9.00
2023-01-18T17:57:41.281Z,9.03
2023-01-18T18:00:11.819Z,8.60
2023-01-18T18:02:38.548Z,9.60
2023-01-18T18:05:05.794Z,9.63
2023-01-18T18:07:32.638Z,9.63
2023-01-18T18:10:01.350Z,9.40
2023-01-18T18:12:29.453Z,9.37
2023-01-18T18:14:56.393Z,9.27
2023-01-18T18:17:25.259Z,9.43
2023-01-18T18:19:51.914Z,10.77
2023-01-18T18:22:21.545Z,14.60
2023-01-18T18:24:49.259Z,11.37
2023-01-18T18:27:17.326Z,10.77
2023-01-18T18:29:44.509Z,12.17
2023-01-18T18:32:11.931Z,14.40
2023-01-18T18:34:38.736Z,11.83
2023-01-18T18:37:05.449Z,9.10
2023-01-18T18:39:35.325Z,8.77
2023-01-18T18:42:02.053Z,9.27
2023-01-18T18:44:28.782Z,9.30
2023-01-18T18:46:55.523Z,9.80
2023-01-18T18:49:22.296Z,9.17
2023-01-18T18:51:48.942Z,8.40
2023-01-18T18:54:15.721Z,9.30
2023-01-18T18:56:42.809Z,10.07
2023-01-18T18:59:09.699Z,9.77
2023-01-18T19:01:36.695Z,9.37
2023-01-18T19:04:04.487Z,10.77
2023-01-18T19:06:31.273Z,10.07
2023-01-18T19:08:58.628Z,9.47
2023-01-18T19:11:25.527Z,9.63
2023-01-18T19:13:54.904Z,9.80
2023-01-18T19:16:21.641Z,9.57
2023-01-18T19:18:48.520Z,9.77
2023-01-18T19:21:15.310Z,9.73
2023-01-18T19:23:42.069Z,10.00
2023-01-18T19:26:08.986Z,10.17
2023-01-18T19:28:36.456Z,10.23
2023-01-18T19:31:08.005Z,13.37
2023-01-18T19:33:35.066Z,12.57
2023-01-18T19:36:10.816Z,10.93
2023-01-18T19:38:46.702Z,10.73
2023-01-18T19:41:16.149Z,10.33
2023-01-18T19:43:43.264Z,10.83
2023-01-18T19:46:11.779Z,11.03
2023-01-18T19:48:39.295Z,10.80
2023-01-18T19:51:21.246Z,10.77
2023-01-18T19:53:49.061Z,10.90
2023-01-18T19:56:15.803Z,11.40
2023-01-18T19:58:42.537Z,11.83
2023-01-18T20:01:11.307Z,10.93
2023-01-18T20:03:38.355Z,11.50
2023-01-18T20:06:09.956Z,11.27
2023-01-18T20:08:37.070Z,11.00
2023-01-18T20:11:12.057Z,10.70
2023-01-18T20:13:40.049Z,10.00
2023-01-18T20:16:06.887Z,10.07
2023-01-18T20:18:35.468Z,8.97
2023-01-18T20:21:12.052Z,9.00
2023-01-18T20:23:38.839Z,9.67
2023-01-18T20:26:06.456Z,9.83
2023-01-18T20:28:35.647Z,9.10
2023-01-18T20:31:05.541Z,9.73
2023-01-18T20:33:35.250Z,8.97
2023-01-18T20:36:03.161Z,8.93
2023-01-18T20:38:30.299Z,10.27
2023-01-18T20:40:57.119Z,9.63
2023-01-18T20:43:23.780Z,8.97
2023-01-18T20:46:00.460Z,9.83
2023-01-18T20:48:27.183Z,10.80
2023-01-18T20:50:53.928Z,10.53
2023-01-18T20:53:20.760Z,9.87
2023-01-18T20:55:47.444Z,10.17
2023-01-18T20:58:14.130Z,9.17
2023-01-18T21:00:40.878Z,10.60
2023-01-18T21:03:07.727Z,10.17
2023-01-18T21:05:34.462Z,10.50
2023-01-18T21:08:01.500Z,9.63
2023-01-18T21:10:38.497Z,9.03
2023-01-18T21:13:09.813Z,9.17
2023-01-18T21:15:37.789Z,8.97
2023-01-18T21:18:06.099Z,8.77
2023-01-18T21:20:33.124Z,9.20
2023-01-18T21:23:01.257Z,9.23
2023-01-18T21:25:29.999Z,9.50
2023-01-18T21:27:58.069Z,9.73
2023-01-18T21:30:25.131Z,9.23
2023-01-18T21:32:51.869Z,9.00
2023-01-18T21:35:18.884Z,9.23
2023-01-18T21:37:45.569Z,9.23
2023-01-18T21:40:12.601Z,9.07
2023-01-18T21:42:57.837Z,8.73
2023-01-18T21:45:43.348Z,8.93
2023-01-18T21:48:10.101Z,9.00
2023-01-18T21:50:59.301Z,8.40
2023-01-18T21:53:44.875Z,8.17
2023-01-18T21:56:11.641Z,8.80
2023-01-18T21:58:53.360Z,8.33
2023-01-18T22:01:34.433Z,9.23
2023-01-18T22:04:21.910Z,9.20
2023-01-18T22:06:48.949Z,9.17
2023-01-18T22:09:16.083Z,9.20
2023-01-18T22:11:43.326Z,9.37
2023-01-18T22:14:10.524Z,10.50
2023-01-18T22:16:37.680Z,10.67
2023-01-18T22:19:05.077Z,10.07
2023-01-18T22:21:32.608Z,9.03
2023-01-18T22:24:00.125Z,9.33
2023-01-18T22:26:28.852Z,8.33
2023-01-18T22:28:55.636Z,9.47
2023-01-18T22:31:22.739Z,9.13
2023-01-18T22:33:49.455Z,8.23
2023-01-18T22:36:16.752Z,9.00
2023-01-18T22:38:44.811Z,9.67
2023-01-18T22:41:15.452Z,9.00
2023-01-18T22:43:43.008Z,8.60
2023-01-18T22:46:13.391Z,9.07
2023-01-18T22:48:40.813Z,7.97
2023-01-18T22:51:10.699Z,8.70
2023-01-18T22:53:38.241Z,9.53
2023-01-18T22:56:07.640Z,9.13
2023-01-18T22:58:35.252Z,8.93
2023-01-18T23:01:02.382Z,8.20
2023-01-18T23:03:31.191Z,8.00
2023-01-18T23:05:59.800Z,9.03
2023-01-18T23:08:44.650Z,8.97
2023-01-18T23:11:14.344Z,8.53
2023-01-18T23:13:43.084Z,8.37
2023-01-18T23:16:32.136Z,8.67
2023-01-18T23:18:59.190Z,8.30
2023-01-18T23:21:25.936Z,8.53
2023-01-18T23:23:52.664Z,8.47
2023-01-18T23:26:19.291Z,8.23
2023-01-18T23:28:46.052Z,8.40
2023-01-18T23:31:15.426Z,8.80
2023-01-18T23:33:42.790Z,8.53
2023-01-18T23:36:10.765Z,8.30
2023-01-18T23:38:56.792Z,9.47
2023-01-18T23:41:42.248Z,9.17
2023-01-18T23:44:27.609Z,8.57
2023-01-18T23:47:13.262Z,8.87
2023-01-18T23:49:58.875Z,8.47
2023-01-18T23:52:44.350Z,8.97
2023-01-18T23:55:11.101Z,8.57
2023-01-18T23:57:37.923Z,8.57
